Time;durP1;ratioP1;P1;durP2;ratioP2;P2;SDS_P1;SDS_P2;PMS_P1;PMS_P2;Temp;Humidity;BMP_temperature;BMP_pressure;BME280_temperature;BME280_humidity;BME280_pressure;Samples;Min_cycle;Max_cycle;Signal;HPM_P1;HPM_P2
2023/03/02 00:01:42;;;;;;;;;66.00;54.25;;;;;5.15;58.66;99123.22;5110972;27;45533;-79
2023/03/02 00:04:31;;;;;;;;;70.25;54.00;;;;;5.17;58.50;99120.59;5095490;27;45428;-80
2023/03/02 00:07:01;;;;;;;;;69.25;54.25;;;;;5.15;58.53;99118.00;5081133;27;45704;-78
2023/03/02 00:09:27;;;;;;;;;68.50;53.25;;;;;5.18;58.76;99127.53;5094948;27;46448;-80
2023/03/02 00:11:53;;;;;;;;;77.25;54.50;;;;;5.17;58.63;99124.06;5093864;27;45405;-79
2023/03/02 00:14:18;;;;;;;;;73.00;55.75;;;;;5.17;58.71;99129.28;5094496;27;45621;-79
2023/03/02 00:16:44;;;;;;;;;70.25;54.75;;;;;5.20;58.51;99128.34;5094626;27;45457;-79
2023/03/02 00:19:09;;;;;;;;;70.00;52.75;;;;;5.21;58.66;99124.84;5094114;27;46466;-79
2023/03/02 00:21:34;;;;;;;;;65.50;51.75;;;;;5.23;58.46;99120.47;5094148;27;45422;-80
2023/03/02 00:24:00;;;;;;;;;73.50;56.25;;;;;5.23;58.50;99123.06;5094886;27;46011;-79
2023/03/02 00:26:25;;;;;;;;;71.75;54.50;;;;;5.23;58.23;99123.06;5095128;27;45319;-79
2023/03/02 00:28:52;;;;;;;;;76.00;59.00;;;;;5.23;58.56;99129.16;5094384;27;46320;-80
2023/03/02 00:31:18;;;;;;;;;68.50;53.00;;;;;5.23;58.47;99136.13;5093381;27;45476;-79
2023/03/02 00:33:43;;;;;;;;;68.25;54.25;;;;;5.23;58.37;99131.78;5094830;27;45368;-79
2023/03/02 00:36:16;;;;;;;;;74.25;56.75;;;;;5.26;58.39;99141.31;5094853;27;45392;-79
2023/03/02 00:38:42;;;;;;;;;77.00;57.50;;;;;5.26;58.02;99136.09;5094452;27;45427;-80
2023/03/02 00:41:09;;;;;;;;;67.25;54.00;;;;;5.28;58.52;99143.91;5093064;27;45467;-79
2023/03/02 00:43:35;;;;;;;;;68.50;52.50;;;;;5.29;57.93;99143.00;5109853;27;45359;-79
2023/03/02 00:46:11;;;;;;;;;76.00;55.50;;;;;5.31;58.32;99133.41;5094759;27;45306;-79
2023/03/02 00:48:36;;;;;;;;;68.50;55.00;;;;;5.31;58.22;99142.09;5098055;27;45751;-79
2023/03/02 00:51:02;;;;;;;;;71.00;53.50;;;;;5.32;58.40;99140.34;5096419;27;45432;-79
2023/03/02 00:53:27;;;;;;;;;71.75;55.00;;;;;5.32;58.22;99142.97;5097785;27;45435;-80
2023/03/02 00:55:53;;;;;;;;;69.50;54.25;;;;;5.34;58.10;99139.44;5098008;27;45463;-79
2023/03/02 00:58:20;;;;;;;;;66.50;53.25;;;;;5.33;58.23;99135.09;5096240;27;47688;-79
2023/03/02 01:00:56;;;;;;;;;74.75;57.00;;;;;5.32;58.11;99145.56;5097577;27;45474;-79
2023/03/02 01:03:21;;;;;;;;;74.00;54.50;;;;;5.30;58.13;99142.13;5097459;27;45393;-79
2023/03/02 01:05:47;;;;;;;;;77.50;60.25;;;;;5.30;58.30;99136.91;5098032;27;45466;-80
2023/03/02 01:08:13;;;;;;;;;76.00;57.00;;;;;5.31;57.97;99134.25;5097773;27;46201;-79
2023/03/02 01:10:38;;;;;;;;;70.25;54.00;;;;;5.32;58.21;99136.00;5097671;27;45425;-79
2023/03/02 01:13:05;;;;;;;;;75.75;55.25;;;;;5.32;57.90;99133.38;5097152;27;45434;-79
2023/03/02 01:15:31;;;;;;;;;72.33;56.00;;;;;5.31;58.02;99141.25;5095520;27;45383;-79
2023/03/02 01:17:58;;;;;;;;;70.50;54.50;;;;;5.31;57.79;99136.88;5096584;27;45664;-79
2023/03/02 01:20:24;;;;;;;;;69.25;55.25;;;;;5.32;57.99;99141.22;5097877;27;45323;-79
2023/03/02 01:22:49;;;;;;;;;75.00;53.50;;;;;5.33;58.00;99142.06;5097503;27;45971;-80
2023/03/02 01:25:15;;;;;;;;;78.75;58.50;;;;;5.34;57.85;99136.81;5097707;27;45529;-79
2023/03/02 01:27:40;;;;;;;;;74.75;55.75;;;;;5.34;58.02;99133.34;5097054;27;45462;-79
2023/03/02 01:30:06;;;;;;;;;64.75;54.00;;;;;5.34;58.33;99130.72;5097456;27;45412;-79
2023/03/02 01:32:32;;;;;;;;;72.50;54.25;;;;;5.34;58.05;99128.13;5097112;27;45439;-79
2023/03/02 01:34:57;;;;;;;;;73.00;53.50;;;;;5.33;58.05;99135.09;5097645;27;45407;-79
2023/03/02 01:37:22;;;;;;;;;73.00;56.50;;;;;5.33;58.30;99126.41;5097363;27;46225;-79
2023/03/02 01:39:49;;;;;;;;;76.75;58.00;;;;;5.32;57.79;99122.06;5096092;27;45492;-79
2023/03/02 01:42:15;;;;;;;;;67.50;53.00;;;;;5.31;58.04;99125.56;5097406;27;45329;-79
2023/03/02 01:44:51;;;;;;;;;74.00;56.25;;;;;5.31;58.17;99117.72;5097192;27;45505;-79
2023/03/02 01:47:24;;;;;;;;;73.00;53.25;;;;;5.31;57.93;99107.25;5095756;27;47936;-79
2023/03/02 01:50:00;;;;;;;;;75.75;56.50;;;;;5.31;57.99;99107.25;5096093;27;45952;-80
2023/03/02 01:52:30;;;;;;;;;68.67;54.00;;;;;5.30;58.07;99116.00;5097313;27;45443;-79
2023/03/02 01:54:59;;;;;;;;;67.67;52.33;;;;;5.28;58.00;99105.56;5097093;27;45404;-79
2023/03/02 01:57:29;;;;;;;;;78.50;57.75;;;;;5.25;58.16;99101.25;5096766;27;45478;-79
2023/03/02 02:00:07;;;;;;;;;75.25;57.75;;;;;5.26;58.49;99104.72;5095627;27;45462;-79
2023/03/02 02:02:33;;;;;;;;;74.50;55.50;;;;;5.22;58.45;99097.81;5097203;27;45361;-79
2023/03/02 02:05:02;;;;;;;;;73.50;56.25;;;;;5.22;58.53;99101.31;5097016;27;45451;-80
2023/03/02 02:07:28;;;;;;;;;73.75;55.50;;;;;5.20;58.96;99095.25;5095587;27;46418;-79
2023/03/02 02:09:55;;;;;;;;;69.75;54.00;;;;;5.15;58.96;99085.78;5096370;27;45314;-79
2023/03/02 02:12:24;;;;;;;;;81.00;58.00;;;;;5.12;59.21;99085.84;5096797;27;45507;-79
2023/03/02 02:14:50;;;;;;;;;75.25;56.25;;;;;5.07;58.92;99082.44;5096967;27;45581;-79
2023/03/02 02:17:16;;;;;;;;;74.75;57.75;;;;;5.00;58.81;99073.88;5096649;27;46038;-79
2023/03/02 02:20:01;;;;;;;;;75.50;58.25;;;;;4.95;58.95;99080.06;5095601;27;45383;-80
2023/03/02 02:22:46;;;;;;;;;70.50;54.50;;;;;4.91;59.26;99081.84;5095384;27;45348;-79
2023/03/02 02:25:51;;;;;;;;;80.50;59.50;;;;;4.87;59.18;99088.03;5075071;27;45374;-79
2023/03/02 02:28:22;;;;;;;;;76.50;56.00;;;;;4.84;59.69;99088.09;5083091;27;46914;-79
2023/03/02 02:30:53;;;;;;;;;81.25;58.75;;;;;4.81;59.79;99083.78;5096541;27;45456;-79
2023/03/02 02:33:22;;;;;;;;;61.50;48.25;;;;;4.75;59.79;99086.50;5096877;27;45249;-79
2023/03/02 02:35:50;;;;;;;;;69.75;54.00;;;;;4.70;59.88;99096.16;5094896;27;45584;-79
2023/03/02 02:38:18;;;;;;;;;67.75;53.25;;;;;4.68;60.12;99087.50;5096640;27;46224;-79
2023/03/02 02:40:48;;;;;;;;;71.50;53.75;;;;;4.68;60.32;99094.47;5094667;27;45468;-79
2023/03/02 02:43:17;;;;;;;;;76.75;56.00;;;;;4.68;60.51;99095.34;5096109;27;45378;-79
2023/03/02 02:45:44;;;;;;;;;73.75;57.25;;;;;4.68;60.33;99094.47;5095739;27;45333;-79
2023/03/02 02:48:18;;;;;;;;;77.75;58.75;;;;;4.68;60.00;99094.47;5094336;27;48166;-79
2023/03/02 02:50:45;;;;;;;;;76.75;57.00;;;;;4.65;60.14;99099.75;5096150;27;45345;-79
2023/03/02 02:53:16;;;;;;;;;74.50;57.00;;;;;4.66;60.35;99094.50;5096275;27;45514;-79
2023/03/02 02:55:43;;;;;;;;;72.00;56.25;;;;;4.67;60.28;99095.38;5083256;27;45368;-79
2023/03/02 02:58:23;;;;;;;;;76.00;54.50;;;;;4.66;60.86;99094.50;5095655;27;46351;-79
2023/03/02 03:00:48;;;;;;;;;73.50;56.25;;;;;4.65;60.99;99091.91;5084655;27;45479;-79
2023/03/02 03:03:29;;;;;;;;;71.25;55.75;;;;;4.59;60.78;99090.25;5095999;27;45535;-79
2023/03/02 03:05:56;;;;;;;;;74.25;57.75;;;;;4.54;61.08;99100.75;5095116;27;45407;-79
2023/03/02 03:08:44;;;;;;;;;68.25;53.25;;;;;4.51;61.29;99092.16;5095342;27;45508;-79
2023/03/02 03:11:18;;;;;;;;;77.00;54.25;;;;;4.47;61.67;99090.47;5095915;27;45328;-80
2023/03/02 03:13:45;;;;;;;;;73.00;56.75;;;;;4.44;61.43;99096.59;5096059;27;45461;-79
2023/03/02 03:16:14;;;;;;;;;68.50;53.50;;;;;4.41;61.71;99093.16;5095783;27;45375;-79
2023/03/02 03:18:45;;;;;;;;;76.50;58.75;;;;;4.37;61.79;99092.34;5095791;27;45528;-79
2023/03/02 03:21:11;;;;;;;;;70.00;54.75;;;;;4.34;61.66;99094.16;5094143;27;45330;-79
2023/03/02 03:23:37;;;;;;;;;73.75;56.25;;;;;4.29;61.88;99094.22;5095326;27;45538;-79
2023/03/02 03:26:03;;;;;;;;;64.50;51.25;;;;;4.22;61.69;99084.75;5095412;27;45402;-79
2023/03/02 03:28:29;;;;;;;;;75.00;58.75;;;;;4.15;62.35;99089.22;5095591;27;46292;-79
2023/03/02 03:30:55;;;;;;;;;63.25;47.50;;;;;4.11;61.93;99094.50;5095623;27;45404;-79
2023/03/02 03:33:20;;;;;;;;;78.25;58.75;;;;;4.06;62.18;99091.09;5096050;27;45525;-79
2023/03/02 03:35:46;;;;;;;;;70.75;54.50;;;;;4.02;63.04;99100.69;5095734;27;45468;-79
2023/03/02 03:38:11;;;;;;;;;79.75;61.75;;;;;3.98;62.67;99109.47;5093961;27;46573;-79
2023/03/02 03:40:37;;;;;;;;;75.25;57.75;;;;;3.93;62.66;99111.25;5095361;27;45455;-79
2023/03/02 03:43:03;;;;;;;;;72.75;52.75;;;;;3.92;62.57;99113.88;5095514;27;46203;-79
2023/03/02 03:45:28;;;;;;;;;69.50;55.25;;;;;3.91;62.49;99109.56;5095666;27;45412;-79
2023/03/02 03:47:54;;;;;;;;;72.00;56.00;;;;;3.91;62.88;99106.94;5093929;27;46997;-79
2023/03/02 03:50:20;;;;;;;;;72.00;57.50;;;;;3.88;62.96;99109.59;5095343;27;45477;-79
2023/03/02 03:52:45;;;;;;;;;75.75;55.50;;;;;3.85;62.82;99111.34;5096021;27;45294;-79
2023/03/02 03:55:11;;;;;;;;;79.00;58.00;;;;;3.83;63.05;99107.94;5095022;27;45267;-79
2023/03/02 03:57:36;;;;;;;;;65.00;51.50;;;;;3.81;63.42;99111.44;5094712;27;46361;-79
2023/03/02 04:00:06;;;;;;;;;77.25;57.00;;;;;3.82;63.02;99105.34;5094275;27;45473;-79
2023/03/02 04:02:32;;;;;;;;;68.25;55.00;;;;;3.80;63.26;99114.94;5093506;27;45451;-79
2023/03/02 04:05:05;;;;;;;;;77.25;58.50;;;;;3.79;63.25;99110.59;5094486;27;45380;-79
2023/03/02 04:07:35;;;;;;;;;74.25;56.50;;;;;3.77;63.17;99104.53;5094920;27;45456;-79
2023/03/02 04:10:03;;;;;;;;;73.50;56.00;;;;;3.74;63.67;99115.00;5093744;27;46330;-79
2023/03/02 04:12:35;;;;;;;;;77.25;56.75;;;;;3.73;63.21;99113.25;5095097;27;45391;-79
2023/03/02 04:15:00;;;;;;;;;67.50;54.50;;;;;3.73;63.80;99110.66;5093733;27;45456;-79
2023/03/02 04:17:26;;;;;;;;;72.75;55.00;;;;;3.71;63.42;99112.41;5094774;27;46074;-79
2023/03/02 04:19:52;;;;;;;;;72.50;55.50;;;;;3.71;63.57;99105.47;5095026;27;45472;-79
2023/03/02 04:22:18;;;;;;;;;76.25;56.75;;;;;3.73;63.53;99102.84;5097536;27;45390;-79
2023/03/02 04:24:45;;;;;;;;;74.25;55.50;;;;;3.73;63.32;99108.06;5098648;27;45482;-79
2023/03/02 04:27:10;;;;;;;;;75.00;55.25;;;;;3.73;63.51;99101.09;5097165;27;47293;-79
2023/03/02 04:29:36;;;;;;;;;76.75;57.75;;;;;3.74;63.49;99099.34;5098140;27;45406;-79
2023/03/02 04:32:02;;;;;;;;;77.50;57.25;;;;;3.74;63.50;99109.78;5098801;27;45355;-79
2023/03/02 04:34:27;;;;;;;;;73.50;55.50;;;;;3.74;63.77;99109.78;5096625;27;45532;-80
2023/03/02 04:36:53;;;;;;;;;75.00;59.00;;;;;3.74;63.47;99105.44;5097952;27;45431;-79
2023/03/02 04:39:19;;;;;;;;;73.50;56.75;;;;;3.76;63.80;99114.09;5097725;27;45570;-79
2023/03/02 04:41:45;;;;;;;;;73.50;55.50;;;;;3.78;63.52;99117.56;5097965;27;45436;-79
2023/03/02 04:44:11;;;;;;;;;76.25;57.75;;;;;3.80;64.01;99107.97;5097777;27;45318;-79
2023/03/02 04:46:37;;;;;;;;;72.50;54.75;;;;;3.80;63.68;99105.34;5098297;27;45409;-79
2023/03/02 04:49:03;;;;;;;;;79.00;58.75;;;;;3.82;63.19;99116.63;5098225;27;45287;-78
2023/03/02 04:51:32;;;;;;;;;70.00;54.25;;;;;3.84;64.12;99114.88;5098218;27;45447;-78
2023/03/02 04:54:01;;;;;;;;;70.25;57.00;;;;;3.84;64.08;99121.84;5097998;27;45482;-79
2023/03/02 04:56:27;;;;;;;;;79.75;57.50;;;;;3.84;63.84;99132.25;5097689;27;46218;-79
2023/03/02 04:58:53;;;;;;;;;77.00;59.50;;;;;3.85;64.64;99134.81;5084295;27;45331;-79
2023/03/02 05:01:19;;;;;;;;;76.50;58.75;;;;;3.85;64.04;99145.25;5097959;27;45532;-80
2023/03/02 05:03:45;;;;;;;;;72.25;58.25;;;;;3.85;64.10;99141.81;5098063;27;45562;-81
2023/03/02 05:06:15;;;;;;;;;78.00;58.25;;;;;3.85;64.31;99147.84;5096454;27;46883;-80
2023/03/02 05:08:42;;;;;;;;;81.00;61.75;;;;;3.82;64.00;99147.06;5085044;27;45472;-80
2023/03/02 05:11:12;;;;;;;;;74.75;57.75;;;;;3.79;64.16;99152.31;5095855;27;45565;-79
2023/03/02 05:13:37;;;;;;;;;73.75;58.00;;;;;3.76;64.74;99149.72;5097301;27;45408;-80
2023/03/02 05:16:03;;;;;;;;;67.50;50.00;;;;;3.72;64.37;99141.09;5095492;27;45516;-80
2023/03/02 05:18:30;;;;;;;;;72.50;53.75;;;;;3.69;64.14;99148.06;5096226;27;45352;-79
2023/03/02 05:20:56;;;;;;;;;76.00;57.25;;;;;3.69;64.21;99156.75;5098182;27;45517;-79
2023/03/02 05:23:25;;;;;;;;;78.75;59.50;;;;;3.70;64.26;99155.88;5096485;27;45258;-78
2023/03/02 05:25:51;;;;;;;;;77.25;58.00;;;;;3.73;64.48;99153.25;5097472;27;45489;-79
2023/03/02 05:28:19;;;;;;;;;77.50;56.00;;;;;3.77;64.74;99159.28;5097348;27;45456;-78
2023/03/02 05:30:45;;;;;;;;;70.50;51.00;;;;;3.77;64.36;99162.75;5096284;27;45352;-79
2023/03/02 05:33:11;;;;;;;;;80.25;58.00;;;;;3.77;64.24;99172.31;5097171;27;45550;-79
2023/03/02 05:35:36;;;;;;;;;70.25;52.75;;;;;3.78;64.35;99169.69;5097364;27;45482;-78
2023/03/02 05:38:02;;;;;;;;;76.25;56.50;;;;;3.80;64.56;99169.69;5097242;27;45336;-80
2023/03/02 05:40:27;;;;;;;;;80.00;57.50;;;;;3.82;64.78;99168.78;5097383;27;45501;-80
2023/03/02 05:42:52;;;;;;;;;72.25;57.00;;;;;3.84;64.80;99169.63;5095566;27;45600;-80
2023/03/02 05:45:40;;;;;;;;;77.00;56.50;;;;;3.86;64.73;99172.19;5096852;27;45487;-80
2023/03/02 05:48:06;;;;;;;;;74.75;55.50;;;;;3.90;64.57;99181.72;5094475;27;45415;-78
2023/03/02 05:50:32;;;;;;;;;71.50;54.50;;;;;3.93;64.58;99175.59;5096621;27;45399;-80
2023/03/02 05:52:59;;;;;;;;;73.00;55.00;;;;;3.97;64.74;99179.91;5095050;27;45530;-80
2023/03/02 05:55:24;;;;;;;;;70.75;55.75;;;;;4.00;64.69;99185.09;5096097;27;46305;-80
2023/03/02 05:57:50;;;;;;;;;76.00;56.75;;;;;4.03;64.57;99187.63;5096456;27;45729;-80
2023/03/02 06:00:17;;;;;;;;;73.25;58.25;;;;;4.06;64.56;99185.84;5097028;27;45396;-80
2023/03/02 06:02:43;;;;;;;;;78.25;57.25;;;;;4.09;64.21;99193.63;5095288;27;45369;-80
2023/03/02 06:05:12;;;;;;;;;69.00;54.25;;;;;4.13;64.44;99184.91;5094735;27;46559;-80
2023/03/02 06:07:38;;;;;;;;;69.00;52.75;;;;;4.16;64.65;99182.25;5096899;27;45416;-80
2023/03/02 06:10:05;;;;;;;;;71.00;56.00;;;;;4.20;64.25;99189.13;5095916;27;45606;-79
2023/03/02 06:12:30;;;;;;;;;81.75;59.25;;;;;4.24;64.38;99192.56;5096149;27;46238;-80
2023/03/02 06:14:56;;;;;;;;;76.50;59.50;;;;;4.27;64.43;99195.16;5096077;27;45456;-80
2023/03/02 06:17:21;;;;;;;;;71.25;55.50;;;;;4.30;64.17;99197.72;5094431;27;45378;-80
2023/03/02 06:19:47;;;;;;;;;75.25;57.25;;;;;4.34;64.05;99199.41;5096509;27;45325;-80
2023/03/02 06:22:12;;;;;;;;;79.00;59.00;;;;;4.37;63.81;99209.78;5096458;27;45491;-79
2023/03/02 06:24:37;;;;;;;;;78.00;55.25;;;;;4.40;63.84;99212.34;5096345;27;46118;-80
2023/03/02 06:27:03;;;;;;;;;76.00;56.75;;;;;4.43;63.57;99209.72;5094614;27;45475;-80
2023/03/02 06:29:28;;;;;;;;;75.25;56.50;;;;;4.46;63.54;99207.06;5094959;27;45403;-80
2023/03/02 06:31:53;;;;;;;;;74.75;56.75;;;;;4.48;63.42;99197.47;5095992;27;45376;-79
2023/03/02 06:34:19;;;;;;;;;77.00;57.00;;;;;4.52;63.44;99212.16;5094301;27;47358;-79
2023/03/02 06:36:44;;;;;;;;;73.75;53.75;;;;;4.52;63.36;99212.16;5095089;27;45361;-80
2023/03/02 06:39:14;;;;;;;;;74.00;56.25;;;;;4.52;63.45;99222.63;5094987;27;45360;-80
2023/03/02 06:41:45;;;;;;;;;74.75;58.75;;;;;4.54;63.66;99225.22;5096266;27;45523;-80
2023/03/02 06:44:11;;;;;;;;;75.50;56.75;;;;;4.53;63.37;99229.56;5094504;27;45425;-80
2023/03/02 06:46:38;;;;;;;;;73.50;54.75;;;;;4.52;63.51;99230.44;5095305;27;45438;-78
2023/03/02 06:49:04;;;;;;;;;74.25;58.25;;;;;4.49;63.38;99240.97;5094834;27;45566;-81
2023/03/02 06:51:30;;;;;;;;;73.25;56.25;;;;;4.46;63.38;99237.53;5094993;27;45506;-79
2023/03/02 06:53:56;;;;;;;;;69.50;51.00;;;;;4.45;63.35;99246.22;5094246;27;45438;-81
2023/03/02 06:56:21;;;;;;;;;70.50;57.50;;;;;4.42;63.68;99246.25;5094961;27;45327;-80
2023/03/02 06:58:46;;;;;;;;;70.25;54.00;;;;;4.36;63.83;99243.72;5092824;27;45419;-80
2023/03/02 07:01:12;;;;;;;;;78.75;56.75;;;;;4.37;64.03;99254.16;5094465;27;45305;-80
2023/03/02 07:03:37;;;;;;;;;76.75;57.75;;;;;4.39;63.71;99244.56;5095191;27;46743;-80
2023/03/02 07:06:03;;;;;;;;;78.00;55.00;;;;;4.42;63.85;99251.50;5095298;27;45328;-80
2023/03/02 07:08:29;;;;;;;;;75.00;56.50;;;;;4.45;63.69;99247.09;5094693;27;45462;-80
2023/03/02 07:10:54;;;;;;;;;70.75;56.00;;;;;4.51;63.46;99246.16;5094540;27;45345;-80
2023/03/02 07:13:19;;;;;;;;;76.75;57.00;;;;;4.55;63.12;99245.22;5093620;27;46170;-80
2023/03/02 07:15:45;;;;;;;;;80.50;60.25;;;;;4.59;63.44;99253.88;5093387;27;45409;-79
2023/03/02 07:18:10;;;;;;;;;77.00;56.25;;;;;4.60;63.38;99256.47;5094816;27;45741;-80
2023/03/02 07:20:37;;;;;;;;;76.75;58.00;;;;;4.66;63.16;99253.78;5093912;27;45436;-80
2023/03/02 07:23:03;;;;;;;;;67.25;55.75;;;;;4.74;62.95;99251.03;5094601;27;45445;-80
2023/03/02 07:25:29;;;;;;;;;75.75;58.50;;;;;4.78;63.00;99255.34;5094687;27;45389;-80
2023/03/02 07:27:54;;;;;;;;;70.50;52.50;;;;;4.80;62.50;99253.56;5092814;27;45549;-80
2023/03/02 07:30:20;;;;;;;;;69.75;57.50;;;;;4.82;62.76;99247.44;5092506;27;45423;-80
2023/03/02 07:32:47;;;;;;;;;70.75;56.75;;;;;4.89;62.81;99259.50;5094291;27;46323;-80
2023/03/02 07:35:12;;;;;;;;;76.25;56.00;;;;;4.96;62.47;99262.03;5094968;27;45368;-79
2023/03/02 07:37:37;;;;;;;;;81.50;59.50;;;;;5.01;62.45;99257.59;5100777;27;45394;-80
2023/03/02 07:40:05;;;;;;;;;77.50;60.00;;;;;5.02;62.15;99257.59;5098357;27;45354;-79
2023/03/02 07:42:31;;;;;;;;;76.25;60.25;;;;;5.07;62.25;99266.19;5095832;27;45552;-79
2023/03/02 07:44:56;;;;;;;;;79.25;58.75;;;;;5.12;62.13;99258.28;5110042;27;45438;-79
2023/03/02 07:47:22;;;;;;;;;78.50;60.25;;;;;5.19;62.10;99271.25;5092250;27;45483;-79
2023/03/02 07:49:48;;;;;;;;;81.50;59.75;;;;;5.28;61.98;99279.81;5094711;27;45394;-79
2023/03/02 07:52:13;;;;;;;;;73.25;54.75;;;;;5.33;61.65;99273.63;5092866;27;48222;-79
2023/03/02 07:54:38;;;;;;;;;76.50;58.00;;;;;5.38;61.67;99276.16;5094647;27;45556;-79
2023/03/02 07:57:04;;;;;;;;;84.00;60.00;;;;;5.44;61.41;99281.28;5098752;27;45518;-79
2023/03/02 07:59:29;;;;;;;;;71.25;56.50;;;;;5.50;61.16;99281.19;5100991;27;45397;-79
2023/03/02 08:01:55;;;;;;;;;81.00;60.00;;;;;5.56;61.13;99275.84;5100770;27;46347;-78
2023/03/02 08:04:21;;;;;;;;;78.25;55.00;;;;;5.60;60.67;99282.75;5099475;27;45445;-79
2023/03/02 08:06:46;;;;;;;;;75.50;57.75;;;;;5.66;61.14;99281.78;5101041;27;45831;-80
2023/03/02 08:09:12;;;;;;;;;80.25;58.50;;;;;5.71;61.44;99280.78;5099304;27;45435;-81
2023/03/02 08:11:37;;;;;;;;;75.25;58.25;;;;;5.70;61.35;99279.06;5100613;27;47279;-80
2023/03/02 08:14:09;;;;;;;;;66.75;54.25;;;;;5.71;61.44;99282.53;5100883;27;45474;-80
2023/03/02 08:16:34;;;;;;;;;76.25;61.00;;;;;5.74;61.39;99278.13;5100798;27;45591;-80
2023/03/02 08:18:59;;;;;;;;;78.00;60.25;;;;;5.79;61.21;99283.28;5100497;27;45557;-80
2023/03/02 08:21:26;;;;;;;;;77.00;59.25;;;;;5.84;61.17;99276.22;5099622;27;47338;-79
2023/03/02 08:23:51;;;;;;;;;77.25;58.25;;;;;5.88;61.36;99283.09;5100613;27;45355;-80
2023/03/02 08:26:18;;;;;;;;;78.50;61.00;;;;;5.93;61.00;99290.00;5116775;27;45396;-79
2023/03/02 08:28:44;;;;;;;;;71.50;53.00;;;;;5.99;60.82;99286.44;5100687;27;45520;-80
2023/03/02 08:31:11;;;;;;;;;74.75;56.50;;;;;5.99;61.02;99286.44;5100436;27;45436;-80
2023/03/02 08:33:37;;;;;;;;;69.25;55.50;;;;;5.98;60.92;99281.22;5099832;27;45451;-80
2023/03/02 08:36:06;;;;;;;;;63.75;49.00;;;;;5.92;60.94;99279.56;5100565;27;45546;-80
2023/03/02 08:38:33;;;;;;;;;81.50;59.25;;;;;5.89;61.04;99274.41;5099087;27;45574;-78
2023/03/02 08:41:03;;;;;;;;;76.25;57.00;;;;;5.94;61.40;99276.03;5099962;27;45312;-80
2023/03/02 08:43:29;;;;;;;;;78.25;58.75;;;;;6.01;60.82;99268.94;5099578;27;45445;-80
2023/03/02 08:45:56;;;;;;;;;81.00;61.25;;;;;6.04;60.32;99278.47;5099677;27;45446;-78
2023/03/02 08:48:23;;;;;;;;;79.25;60.00;;;;;6.07;60.71;99273.19;5116436;27;45553;-81
2023/03/02 08:51:14;;;;;;;;;79.00;59.50;;;;;6.13;60.52;99273.94;5100930;27;46019;-80
2023/03/02 08:53:43;;;;;;;;;78.25;59.75;;;;;6.21;60.34;99274.63;5100367;27;45406;-80
2023/03/02 08:56:26;;;;;;;;;80.25;61.00;;;;;6.27;60.14;99264.03;5100611;27;45486;-80
2023/03/02 08:58:53;;;;;;;;;81.00;58.25;;;;;6.30;59.97;99268.38;5100168;27;45419;-79
2023/03/02 09:01:25;;;;;;;;;77.75;59.50;;;;;6.37;59.91;99275.19;5100165;27;46576;-79
2023/03/02 09:03:51;;;;;;;;;86.50;63.75;;;;;6.50;59.67;99266.19;5080412;27;45421;-80
2023/03/02 09:06:17;;;;;;;;;78.50;59.75;;;;;6.58;59.01;99271.25;5094206;27;45330;-79
2023/03/02 09:08:43;;;;;;;;;75.75;59.50;;;;;6.59;59.15;99267.75;5112928;27;45371;-80
2023/03/02 09:11:08;;;;;;;;;65.50;49.75;;;;;6.63;59.06;99266.78;5097259;27;46435;-79
2023/03/02 09:13:34;;;;;;;;;78.75;59.50;;;;;6.75;58.96;99266.50;5097056;27;45367;-79
2023/03/02 09:16:02;;;;;;;;;77.75;57.00;;;;;6.82;58.61;99270.72;5097237;27;45434;-79
2023/03/02 09:18:34;;;;;;;;;77.00;56.75;;;;;6.88;58.52;99270.56;5095640;27;45262;-78
2023/03/02 09:21:00;;;;;;;;;79.50;60.00;;;;;7.00;58.45;99269.44;5096819;27;45458;-80
2023/03/02 09:23:26;;;;;;;;;71.00;56.25;;;;;7.12;58.22;99269.16;5097308;27;45375;-79
2023/03/02 09:25:52;;;;;;;;;75.50;55.50;;;;;7.25;57.65;99272.31;5097218;27;45658;-80
2023/03/02 09:28:17;;;;;;;;;80.50;57.50;;;;;7.35;57.06;99268.59;5112495;27;45559;-79
2023/03/02 09:30:56;;;;;;;;;79.50;58.25;;;;;7.40;57.21;99276.31;5096547;27;46545;-79
2023/03/02 09:33:22;;;;;;;;;75.25;56.00;;;;;7.50;57.12;99281.31;5099061;27;45334;-79
2023/03/02 09:35:48;;;;;;;;;71.75;56.25;;;;;7.62;57.09;99282.78;5096087;27;45316;-79
2023/03/02 09:38:17;;;;;;;;;75.00;56.00;;;;;7.67;56.41;99284.38;5096255;27;45375;-80
2023/03/02 09:40:50;;;;;;;;;74.50;57.75;;;;;7.71;56.41;99285.13;5094836;27;46609;-79
2023/03/02 09:43:46;;;;;;;;;77.25;55.50;;;;;7.78;55.86;99283.22;5095850;27;45534;-79
2023/03/02 09:46:35;;;;;;;;;73.00;56.00;;;;;7.88;55.37;99284.69;5096927;27;45461;-80
2023/03/02 09:49:25;;;;;;;;;74.75;55.75;;;;;7.99;55.17;99282.66;5096761;27;45344;-79
2023/03/02 09:52:04;;;;;;;;;80.25;57.25;;;;;8.06;55.09;99282.44;5094293;27;47399;-79
2023/03/02 09:54:31;;;;;;;;;66.00;51.33;;;;;8.14;54.59;99273.50;5096273;27;45407;-80
2023/03/02 09:56:58;;;;;;;;;72.00;54.33;;;;;8.13;54.35;99274.41;5094899;27;45295;-79
2023/03/02 09:59:29;;;;;;;;;72.33;56.33;;;;;8.12;54.54;99275.31;5094859;27;45537;-79
2023/03/02 10:02:01;;;;;;;;;64.33;49.67;;;;;8.19;53.94;99272.47;5094886;27;47808;-80
2023/03/02 10:04:37;;;;;;;;;68.33;49.67;;;;;8.28;54.10;99277.47;5095753;27;45532;-78
2023/03/02 10:07:30;;;;;;;;;66.67;51.00;;;;;8.26;53.50;99276.63;5098231;27;45419;-79
2023/03/02 10:10:09;;;;;;;;;71.00;53.33;;;;;8.28;53.44;99277.47;5093869;27;45588;-80
2023/03/02 10:12:34;;;;;;;;;68.67;52.67;;;;;8.35;53.32;99262.44;5095287;27;45498;-80
2023/03/02 10:15:09;;;;;;;;;67.33;52.00;;;;;8.40;52.92;99264.00;5096133;27;45377;-80
2023/03/02 10:18:01;;;;;;;;;67.00;51.67;;;;;8.45;52.97;99271.75;5094863;27;45367;-79
2023/03/02 10:20:34;;;;;;;;;68.67;48.33;;;;;8.52;53.20;99264.56;5084854;27;45372;-79
2023/03/02 10:23:26;;;;;;;;;65.33;53.33;;;;;8.56;53.38;99272.28;5096142;27;46674;-80
2023/03/02 10:25:59;;;;;;;;;66.00;51.33;;;;;8.58;52.88;99269.63;5095787;27;45303;-80
2023/03/02 10:28:31;;;;;;;;;73.25;55.75;;;;;8.67;52.61;99269.38;5095430;27;45386;-80
2023/03/02 10:31:08;;;;;;;;;60.33;49.00;;;;;8.71;52.20;99263.13;5093976;27;45551;-80
2023/03/02 10:33:37;;;;;;;;;64.00;52.67;;;;;8.72;52.42;99267.44;5094055;27;45513;-80
2023/03/02 10:36:25;;;;;;;;;67.67;53.67;;;;;8.77;52.43;99259.41;5094404;27;45442;-79
2023/03/02 10:38:52;;;;;;;;;72.00;52.67;;;;;8.81;52.42;99247.91;5094937;27;45565;-79
2023/03/02 10:41:29;;;;;;;;;71.00;54.00;;;;;8.78;52.24;99248.00;5093665;27;45361;-79
2023/03/02 10:44:00;;;;;;;;;76.00;54.67;;;;;8.73;52.06;99246.38;5093856;27;47651;-80
2023/03/02 10:46:26;;;;;;;;;71.00;53.33;;;;;8.69;52.58;99244.75;5095687;27;45268;-80
2023/03/02 10:48:58;;;;;;;;;63.00;49.00;;;;;8.59;51.99;99247.69;5110883;27;45479;-78
2023/03/02 10:51:38;;;;;;;;;73.67;54.33;;;;;8.49;51.92;99239.25;5095101;27;45477;-80
2023/03/02 10:54:10;;;;;;;;;69.33;52.00;;;;;8.38;52.44;99234.28;5094843;27;45506;-80
2023/03/02 10:56:36;;;;;;;;;70.67;53.67;;;;;8.31;52.39;99245.00;5093817;27;45366;-79
2023/03/02 10:59:30;;;;;;;;;72.00;54.33;;;;;8.27;51.68;99236.34;5094362;27;45336;-79
2023/03/02 11:02:11;;;;;;;;;72.67;55.00;;;;;8.22;52.35;99240.84;5095602;27;45387;-79
2023/03/02 11:04:37;;;;;;;;;70.67;51.33;;;;;8.17;51.92;99242.78;5094584;27;46146;-79
2023/03/02 11:07:16;;;;;;;;;70.00;53.00;;;;;8.12;52.55;99235.91;5093358;27;45374;-78
2023/03/02 11:09:42;;;;;;;;;65.33;51.33;;;;;8.07;52.45;99243.91;5093477;27;45487;-79
2023/03/02 11:12:21;;;;;;;;;66.00;53.00;;;;;8.05;52.54;99230.84;5093729;27;45483;-80
2023/03/02 11:14:46;;;;;;;;;72.25;54.25;;;;;8.05;52.52;99237.84;5094966;27;46547;-79
2023/03/02 11:17:40;;;;;;;;;73.00;55.75;;;;;8.01;52.71;99239.72;5092876;27;45392;-79
2023/03/02 11:20:14;;;;;;;;;71.33;52.33;;;;;7.89;52.11;99231.31;5079901;27;45632;-80
2023/03/02 11:23:09;;;;;;;;;70.75;57.00;;;;;7.84;52.61;99230.59;5093465;27;45665;-80
2023/03/02 11:25:39;;;;;;;;;70.33;52.67;;;;;7.79;52.73;99233.31;5093365;27;46751;-79
2023/03/02 11:29:03;;;;;;;;;74.25;55.75;;;;;7.79;53.20;99228.09;5081388;27;45549;-80
2023/03/02 11:31:45;;;;;;;;;70.50;53.25;;;;;7.82;53.08;99228.00;5029162;28;45461;-79
2023/03/02 11:34:19;;;;;;;;;72.00;54.75;;;;;7.78;53.19;99228.97;5048494;28;45485;-82